createdAt,value
2022-12-05T00:02:18.815Z,3.50
2022-12-05T00:04:47.367Z,3.60
2022-12-05T00:07:15.800Z,3.50
2022-12-05T00:09:44.481Z,3.60
2022-12-05T00:12:12.833Z,3.50
2022-12-05T00:14:41.176Z,3.50
2022-12-05T00:17:09.698Z,3.50
2022-12-05T00:19:40.929Z,3.50
2022-12-05T00:22:09.219Z,3.50
2022-12-05T00:24:37.690Z,3.60
2022-12-05T00:27:06.342Z,3.60
2022-12-05T00:29:44.065Z,3.50
2022-12-05T00:32:12.784Z,3.50
2022-12-05T00:34:42.950Z,3.50
2022-12-05T00:37:11.475Z,3.60
2022-12-05T00:39:39.949Z,3.60
2022-12-05T00:42:08.560Z,3.60
2022-12-05T00:44:37.413Z,3.60
2022-12-05T00:47:05.911Z,3.60
2022-12-05T00:49:34.639Z,3.60
2022-12-05T00:52:04.630Z,3.60
2022-12-05T00:54:33.033Z,3.60
2022-12-05T00:57:01.333Z,3.50
2022-12-05T00:59:29.764Z,3.60
2022-12-05T01:01:58.473Z,3.60
2022-12-05T01:04:27.349Z,3.60
2022-12-05T01:06:57.320Z,3.60
2022-12-05T01:09:27.660Z,3.60
2022-12-05T01:11:55.981Z,3.60
2022-12-05T01:14:26.416Z,3.60
2022-12-05T01:16:57.098Z,3.60
2022-12-05T01:19:27.860Z,3.50
2022-12-05T01:21:56.732Z,3.50
2022-12-05T01:24:27.656Z,3.50
2022-12-05T01:26:56.352Z,3.60
2022-12-05T01:29:25.988Z,3.60
2022-12-05T01:31:54.900Z,3.60
2022-12-05T01:34:23.772Z,3.60
2022-12-05T01:36:52.286Z,3.60
2022-12-05T01:39:20.936Z,3.60
2022-12-05T01:41:51.716Z,3.60
2022-12-05T01:44:57.425Z,3.60
2022-12-05T01:47:26.516Z,3.60
2022-12-05T01:49:55.246Z,3.60
2022-12-05T01:52:28.777Z,3.60
2022-12-05T01:55:04.895Z,3.60
2022-12-05T01:57:35.182Z,3.60
2022-12-05T02:00:11.484Z,3.60
2022-12-05T02:02:45.845Z,3.60
2022-12-05T02:05:19.384Z,3.70
2022-12-05T02:07:48.606Z,3.70
2022-12-05T02:10:17.503Z,3.60
2022-12-05T02:12:48.403Z,3.60
2022-12-05T02:15:28.095Z,3.60
2022-12-05T02:18:10.291Z,3.60
2022-12-05T02:20:49.057Z,3.70
2022-12-05T02:23:42.427Z,3.70
2022-12-05T02:26:39.341Z,3.80
2022-12-05T02:29:33.568Z,3.70
2022-12-05T02:32:08.100Z,3.70
2022-12-05T02:34:44.748Z,3.80
2022-12-05T02:37:18.496Z,3.70
2022-12-05T02:39:54.349Z,3.70
2022-12-05T02:42:29.407Z,3.60
2022-12-05T02:45:01.705Z,3.60
2022-12-05T02:47:34.955Z,3.70
2022-12-05T02:50:04.053Z,3.70
2022-12-05T02:52:35.005Z,3.60
2022-12-05T02:55:05.392Z,3.60
2022-12-05T02:57:35.557Z,3.60
2022-12-05T03:00:04.512Z,3.60
2022-12-05T03:02:36.086Z,3.60
2022-12-05T03:05:16.588Z,3.70
2022-12-05T03:07:48.383Z,3.60
2022-12-05T03:10:20.504Z,3.60
2022-12-05T03:12:53.110Z,3.60
2022-12-05T03:15:25.473Z,3.70
2022-12-05T03:18:00.611Z,3.60
2022-12-05T03:20:32.423Z,3.70
2022-12-05T03:23:04.626Z,3.60
2022-12-05T03:25:41.614Z,3.70
2022-12-05T03:28:19.457Z,3.70
2022-12-05T03:30:50.158Z,3.70
2022-12-05T03:33:24.726Z,3.70
2022-12-05T03:36:02.897Z,3.60
2022-12-05T03:38:37.019Z,3.50
2022-12-05T03:41:10.797Z,3.40
2022-12-05T03:43:47.336Z,3.30
2022-12-05T03:46:23.107Z,3.30
2022-12-05T03:48:57.597Z,3.30
2022-12-05T03:51:32.721Z,3.30
2022-12-05T03:54:06.396Z,3.30
2022-12-05T03:56:41.125Z,3.20
2022-12-05T03:59:16.881Z,3.20
2022-12-05T04:01:47.335Z,3.20
2022-12-05T04:04:21.808Z,3.30
2022-12-05T04:06:54.901Z,3.30
2022-12-05T04:09:27.037Z,3.30
2022-12-05T04:12:02.145Z,3.30
2022-12-05T04:14:35.293Z,3.40
2022-12-05T04:17:05.738Z,3.30
2022-12-05T04:19:58.737Z,3.30
2022-12-05T04:22:28.235Z,3.40
2022-12-05T04:25:16.266Z,3.40
2022-12-05T04:27:52.013Z,3.40
2022-12-05T04:30:23.561Z,3.40
2022-12-05T04:32:59.002Z,3.30
2022-12-05T04:35:33.915Z,3.30
2022-12-05T04:38:06.639Z,3.30
2022-12-05T04:40:40.063Z,3.40
2022-12-05T04:43:10.645Z,3.40
2022-12-05T04:45:42.079Z,3.40
2022-12-05T04:48:15.365Z,3.40
2022-12-05T04:50:47.987Z,3.50
2022-12-05T04:53:17.979Z,3.40
2022-12-05T04:55:49.625Z,3.50
2022-12-05T04:58:22.255Z,3.40
2022-12-05T05:00:57.162Z,3.50
2022-12-05T05:03:29.543Z,3.50
2022-12-05T05:05:59.980Z,3.50
2022-12-05T05:08:30.189Z,3.50
2022-12-05T05:11:13.405Z,3.50
2022-12-05T05:13:41.760Z,3.40
2022-12-05T05:16:14.621Z,3.50
2022-12-05T05:18:43.072Z,3.40
2022-12-05T05:21:19.107Z,3.50
2022-12-05T05:23:47.510Z,3.40
2022-12-05T05:26:16.048Z,3.40
2022-12-05T05:28:45.669Z,3.50
2022-12-05T05:31:14.628Z,3.50
2022-12-05T05:33:43.070Z,3.40
2022-12-05T05:36:13.928Z,3.50
2022-12-05T05:38:45.978Z,3.40
2022-12-05T05:41:15.177Z,3.40
2022-12-05T05:43:43.888Z,3.40
2022-12-05T05:46:12.914Z,3.50
2022-12-05T05:48:41.644Z,3.40
2022-12-05T05:51:13.284Z,3.40
2022-12-05T05:53:43.720Z,3.40
2022-12-05T05:56:17.200Z,3.40
2022-12-05T05:58:49.877Z,3.50
2022-12-05T06:01:20.418Z,3.40
2022-12-05T06:03:51.816Z,3.40
2022-12-05T06:06:21.289Z,3.40
2022-12-05T06:08:51.803Z,3.50
2022-12-05T06:11:26.001Z,3.60
2022-12-05T06:13:55.594Z,3.60
2022-12-05T06:16:25.545Z,3.60
2022-12-05T06:18:54.805Z,3.40
2022-12-05T06:21:23.437Z,3.40
2022-12-05T06:23:54.057Z,3.30
2022-12-05T06:26:23.771Z,3.50
2022-12-05T06:28:52.470Z,3.50
2022-12-05T06:31:22.805Z,3.60
2022-12-05T06:33:51.734Z,3.70
2022-12-05T06:36:22.770Z,3.80
2022-12-05T06:38:52.612Z,3.70
2022-12-05T06:41:22.017Z,3.70
2022-12-05T06:43:50.383Z,3.70
2022-12-05T06:46:18.796Z,3.70
2022-12-05T06:48:47.201Z,3.70
2022-12-05T06:51:18.020Z,3.60
2022-12-05T06:53:46.754Z,3.70
2022-12-05T06:56:20.890Z,3.90
2022-12-05T06:58:52.618Z,3.80
2022-12-05T07:01:41.653Z,3.60
2022-12-05T07:04:15.537Z,3.50
2022-12-05T07:06:50.231Z,3.50
2022-12-05T07:09:20.778Z,3.40
2022-12-05T07:11:51.506Z,3.40
2022-12-05T07:14:45.984Z,3.40
2022-12-05T07:17:08.425Z,3.40
2022-12-05T07:19:36.937Z,3.30
2022-12-05T07:22:08.340Z,3.30
2022-12-05T07:24:40.485Z,3.30
2022-12-05T07:27:10.484Z,3.10
2022-12-05T07:29:38.999Z,2.90
2022-12-05T07:32:08.139Z,2.80
2022-12-05T07:34:36.746Z,2.80
2022-12-05T07:37:05.141Z,3.00
2022-12-05T07:39:33.473Z,2.90
2022-12-05T07:42:04.994Z,2.80
2022-12-05T07:44:35.352Z,2.80
2022-12-05T07:47:03.829Z,2.90
2022-12-05T07:49:32.252Z,2.80
2022-12-05T07:52:02.002Z,2.70
2022-12-05T07:54:34.872Z,2.80
2022-12-05T07:57:03.362Z,3.00
2022-12-05T07:59:31.955Z,3.00
2022-12-05T08:02:01.830Z,3.10
2022-12-05T08:04:30.638Z,3.00
2022-12-05T08:06:59.003Z,3.00
2022-12-05T08:09:27.723Z,3.00
2022-12-05T08:11:56.062Z,3.10
2022-12-05T08:14:24.508Z,3.10
2022-12-05T08:16:53.102Z,3.10
2022-12-05T08:19:23.024Z,3.00
2022-12-05T08:21:55.376Z,3.00
2022-12-05T08:24:25.069Z,2.90
2022-12-05T08:26:53.539Z,2.90
2022-12-05T08:29:23.505Z,3.00
2022-12-05T08:31:53.092Z,3.00
2022-12-05T08:34:23.199Z,3.20
2022-12-05T08:36:51.695Z,3.00
2022-12-05T08:39:21.343Z,3.10
2022-12-05T08:41:50.754Z,3.20
2022-12-05T08:44:19.290Z,3.10
2022-12-05T08:46:50.877Z,3.10
2022-12-05T08:49:20.197Z,3.10
2022-12-05T08:51:50.063Z,3.20
2022-12-05T08:54:18.794Z,3.20
2022-12-05T08:56:47.525Z,3.10
2022-12-05T08:59:16.085Z,3.10
2022-12-05T09:01:45.124Z,3.10
2022-12-05T09:04:16.310Z,3.10
2022-12-05T09:06:57.058Z,3.10
2022-12-05T09:09:25.844Z,3.20
2022-12-05T09:12:02.464Z,3.20
2022-12-05T09:14:33.217Z,3.20
2022-12-05T09:17:02.319Z,3.10
2022-12-05T09:19:30.923Z,3.30
2022-12-05T09:22:00.969Z,3.20
2022-12-05T09:24:33.242Z,3.20
2022-12-05T09:27:01.849Z,3.30
2022-12-05T09:29:38.279Z,3.40
2022-12-05T09:32:10.354Z,3.30
2022-12-05T09:34:39.719Z,3.40
2022-12-05T09:37:30.926Z,3.30
2022-12-05T09:39:58.398Z,3.30
2022-12-05T09:42:40.758Z,3.30
2022-12-05T09:45:25.218Z,3.30
2022-12-05T09:47:59.989Z,3.40
2022-12-05T09:50:35.638Z,3.40
2022-12-05T09:53:13.693Z,3.60
2022-12-05T09:55:52.028Z,3.60
2022-12-05T09:58:39.891Z,3.70
2022-12-05T10:01:28.318Z,3.60
2022-12-05T10:04:22.786Z,3.80
2022-12-05T10:07:01.718Z,3.80
2022-12-05T10:09:55.393Z,3.90
2022-12-05T10:12:44.585Z,3.80
2022-12-05T10:15:16.836Z,3.90
2022-12-05T10:17:52.291Z,3.90
2022-12-05T10:20:26.539Z,3.80
2022-12-05T10:22:58.515Z,3.80
2022-12-05T10:25:31.590Z,3.80
2022-12-05T10:28:02.950Z,3.90
2022-12-05T10:30:36.238Z,3.80
2022-12-05T10:33:14.817Z,3.80
2022-12-05T10:35:44.676Z,3.70
2022-12-05T10:38:19.102Z,3.60
2022-12-05T10:40:53.165Z,3.60
2022-12-05T10:43:26.497Z,3.60
2022-12-05T10:45:56.011Z,3.60
2022-12-05T10:48:25.423Z,3.60
2022-12-05T10:50:58.500Z,3.60
2022-12-05T10:53:30.311Z,3.60
2022-12-05T10:56:29.436Z,3.60
2022-12-05T10:58:57.690Z,3.60
2022-12-05T11:01:27.962Z,3.60
2022-12-05T11:03:59.700Z,3.60
2022-12-05T11:06:30.475Z,3.50
2022-12-05T11:09:05.028Z,3.50
2022-12-05T11:11:37.935Z,3.60
2022-12-05T11:14:09.632Z,3.50
2022-12-05T11:16:40.211Z,3.50
2022-12-05T11:19:28.000Z,3.60
2022-12-05T11:21:57.436Z,3.50
2022-12-05T11:24:30.448Z,3.40
2022-12-05T11:27:02.275Z,3.40
2022-12-05T11:29:33.976Z,3.50
2022-12-05T11:32:03.396Z,3.50
2022-12-05T11:34:38.980Z,3.40
2022-12-05T11:37:13.671Z,3.40
2022-12-05T11:39:42.294Z,3.40
2022-12-05T11:42:41.481Z,3.40
2022-12-05T11:45:30.193Z,3.30
2022-12-05T11:48:16.884Z,3.30
2022-12-05T11:51:04.064Z,3.30
2022-12-05T12:35:01.752Z,3.10
2022-12-05T12:38:18.265Z,3.00
2022-12-05T12:41:51.168Z,3.10
2022-12-05T12:45:11.385Z,3.10
2022-12-05T12:47:52.704Z,3.20
2022-12-05T12:50:25.153Z,3.00
2022-12-05T12:53:28.829Z,3.20
2022-12-05T12:56:04.549Z,3.10
2022-12-05T12:58:47.694Z,3.00
2022-12-05T13:01:29.865Z,3.10
2022-12-05T13:04:04.540Z,3.10
2022-12-05T13:06:42.207Z,2.90
2022-12-05T13:09:20.224Z,2.90
2022-12-05T13:12:30.885Z,2.90
2022-12-05T13:15:17.699Z,3.00
2022-12-05T13:17:50.701Z,2.90
2022-12-05T13:20:23.050Z,3.00
2022-12-05T13:22:55.074Z,3.10
2022-12-05T13:25:27.229Z,3.10
2022-12-05T13:28:00.102Z,2.90
2022-12-05T13:30:29.150Z,2.80
2022-12-05T13:32:59.435Z,2.80
2022-12-05T13:35:50.065Z,2.70
2022-12-05T13:38:41.870Z,2.60
2022-12-05T13:41:27.923Z,2.60
2022-12-05T13:44:06.296Z,2.60
2022-12-05T13:46:39.461Z,2.60
2022-12-05T13:49:18.249Z,2.50
2022-12-05T13:51:47.640Z,2.30
2022-12-05T13:54:20.954Z,2.30
2022-12-05T13:56:52.437Z,2.40
2022-12-05T13:59:55.824Z,2.50
2022-12-05T14:02:49.035Z,2.40
2022-12-05T14:05:40.541Z,2.20
2022-12-05T14:08:47.990Z,2.20
2022-12-05T14:11:18.158Z,2.30
2022-12-05T14:13:47.085Z,2.20
2022-12-05T14:16:50.425Z,2.10
2022-12-05T14:19:59.092Z,2.10
2022-12-05T14:23:03.050Z,1.90
2022-12-05T14:25:58.215Z,2.00
2022-12-05T14:28:55.038Z,1.80
2022-12-05T14:31:35.557Z,1.80
2022-12-05T14:34:20.842Z,1.70
2022-12-05T14:36:59.141Z,1.70
2022-12-05T14:39:42.919Z,1.60
2022-12-05T14:42:33.279Z,1.50
2022-12-05T14:45:19.042Z,1.50
2022-12-05T14:47:53.790Z,1.50
2022-12-05T14:50:42.808Z,1.70
2022-12-05T14:53:32.366Z,1.70
2022-12-05T14:56:13.483Z,1.60
2022-12-05T14:58:46.588Z,1.40
2022-12-05T15:01:20.188Z,1.40
2022-12-05T15:04:17.491Z,1.30
2022-12-05T15:06:52.589Z,1.30
2022-12-05T15:09:38.028Z,1.20
2022-12-05T15:12:16.041Z,1.10
2022-12-05T15:14:54.247Z,1.20
2022-12-05T15:17:28.956Z,1.10
2022-12-05T15:20:04.104Z,1.10
2022-12-05T15:22:36.954Z,1.10
2022-12-05T15:25:30.185Z,1.10
2022-12-05T15:28:05.623Z,1.10
2022-12-05T15:30:37.439Z,1.20
2022-12-05T15:33:13.706Z,1.20
2022-12-05T15:35:42.937Z,1.20
2022-12-05T15:38:26.807Z,1.20
2022-12-05T15:40:56.250Z,1.10
2022-12-05T15:43:32.411Z,1.10
2022-12-05T15:46:24.708Z,1.00
2022-12-05T15:49:00.924Z,1.00
2022-12-05T15:51:36.906Z,1.00
2022-12-05T15:54:12.167Z,1.00
2022-12-05T15:56:46.674Z,1.00
2022-12-05T15:59:22.388Z,1.00
2022-12-05T16:01:58.136Z,1.10
2022-12-05T16:04:36.093Z,1.10
2022-12-05T16:07:16.966Z,1.20
2022-12-05T16:09:47.652Z,1.20
2022-12-05T16:12:26.105Z,1.20
2022-12-05T16:15:00.081Z,1.30
2022-12-05T16:17:31.309Z,1.30
2022-12-05T16:20:22.059Z,1.30
2022-12-05T16:22:52.539Z,1.30
2022-12-05T16:25:24.959Z,1.30
2022-12-05T16:28:02.008Z,1.30
2022-12-05T16:30:31.976Z,1.30
2022-12-05T16:33:03.624Z,1.30
2022-12-05T16:35:42.182Z,1.30
2022-12-05T16:38:22.691Z,1.30
2022-12-05T16:40:59.748Z,1.20
2022-12-05T16:43:42.510Z,1.20
2022-12-05T16:46:40.852Z,1.20
2022-12-05T16:49:34.560Z,1.20
2022-12-05T16:52:14.613Z,1.20
2022-12-05T16:54:44.043Z,1.30
2022-12-05T16:57:15.308Z,1.30
2022-12-05T16:59:47.214Z,1.30
2022-12-05T17:02:17.366Z,1.30
2022-12-05T17:04:47.067Z,1.30
2022-12-05T17:07:17.030Z,1.20
2022-12-05T17:09:45.651Z,1.20
2022-12-05T17:12:20.003Z,1.20
2022-12-05T17:14:48.524Z,1.20
2022-12-05T17:17:18.415Z,1.30
2022-12-05T17:19:47.213Z,1.20
2022-12-05T17:22:18.241Z,1.20
2022-12-05T17:24:47.115Z,1.20
2022-12-05T17:27:15.665Z,1.20
2022-12-05T17:29:44.644Z,1.20
2022-12-05T17:32:13.144Z,1.30
2022-12-05T17:34:43.465Z,1.20
2022-12-05T17:37:11.907Z,1.30
2022-12-05T17:39:42.224Z,1.30
2022-12-05T17:42:11.129Z,1.30
2022-12-05T17:44:39.975Z,1.40
2022-12-05T17:47:09.813Z,1.40
2022-12-05T17:49:38.318Z,1.40
2022-12-05T17:52:21.431Z,1.40
2022-12-05T17:54:52.546Z,1.50
2022-12-05T17:57:21.625Z,1.50
2022-12-05T17:59:50.410Z,1.50
2022-12-05T18:02:20.252Z,1.50
2022-12-05T18:05:02.564Z,1.50
2022-12-05T18:11:08.366Z,1.50
2022-12-05T18:14:02.784Z,1.50
2022-12-05T18:16:48.508Z,1.50
2022-12-05T18:19:27.396Z,1.50
2022-12-05T18:22:20.443Z,1.40
2022-12-05T18:26:43.365Z,1.50
2022-12-05T18:29:08.677Z,1.50
2022-12-05T18:31:41.712Z,1.50
2022-12-05T18:34:10.704Z,1.40
2022-12-05T18:36:46.749Z,1.40
2022-12-05T18:39:16.057Z,1.50
2022-12-05T18:41:44.725Z,1.50
2022-12-05T18:44:15.328Z,1.40
2022-12-05T18:46:44.326Z,1.40
2022-12-05T18:49:13.936Z,1.40
2022-12-05T18:52:29.349Z,1.50
2022-12-05T18:59:40.008Z,1.40
2022-12-05T19:02:26.607Z,1.60
2022-12-05T19:06:53.135Z,1.60
2022-12-05T19:08:18.418Z,1.50
2022-12-05T19:10:58.678Z,1.50
2022-12-05T19:13:51.871Z,1.50
2022-12-05T19:17:48.726Z,1.50
2022-12-05T19:21:42.510Z,1.50
2022-12-05T19:23:42.419Z,1.50
2022-12-05T19:26:12.997Z,1.50
2022-12-05T19:28:41.703Z,1.50
2022-12-05T19:31:14.913Z,1.50
2022-12-05T19:33:49.672Z,1.50
2022-12-05T19:36:20.890Z,1.50
2022-12-05T19:38:54.816Z,1.50
2022-12-05T19:41:33.645Z,1.60
2022-12-05T19:44:08.433Z,1.60
2022-12-05T19:47:43.926Z,1.60
2022-12-05T19:50:33.265Z,1.50
2022-12-05T19:53:07.424Z,1.50
2022-12-05T19:55:53.845Z,1.60
2022-12-05T19:58:41.781Z,1.50
2022-12-05T20:01:21.322Z,1.60
2022-12-05T20:03:59.577Z,1.50
2022-12-05T20:06:46.591Z,1.50
2022-12-05T20:09:22.457Z,1.60
2022-12-05T20:11:55.382Z,1.60
2022-12-05T20:14:28.139Z,1.60
2022-12-05T20:17:03.515Z,1.60
2022-12-05T20:19:34.323Z,1.60
2022-12-05T20:22:04.612Z,1.60
2022-12-05T20:24:33.309Z,1.60
2022-12-05T20:27:04.498Z,1.50
2022-12-05T20:29:35.024Z,1.50
2022-12-05T20:32:17.172Z,1.50
2022-12-05T20:35:02.089Z,1.60
2022-12-05T20:37:55.591Z,1.60
2022-12-05T20:41:03.340Z,1.60
2022-12-05T20:43:32.898Z,1.70
2022-12-05T20:46:10.167Z,1.70
2022-12-05T20:48:45.307Z,1.70
2022-12-05T20:51:28.630Z,1.70
2022-12-05T20:54:06.851Z,1.70
2022-12-05T20:56:52.019Z,1.70
2022-12-05T20:59:56.408Z,1.70
2022-12-05T21:02:36.086Z,1.70
2022-12-05T21:05:13.531Z,1.70
2022-12-05T21:07:49.422Z,1.70
2022-12-05T21:10:23.347Z,1.60
2022-12-05T21:13:00.559Z,1.70
2022-12-05T21:15:38.805Z,1.70
2022-12-05T21:18:07.944Z,1.70
2022-12-05T21:20:42.202Z,1.70
2022-12-05T21:23:11.750Z,1.70
2022-12-05T21:25:42.316Z,1.60
2022-12-05T21:28:20.813Z,1.60
2022-12-05T21:30:52.705Z,1.60
2022-12-05T21:33:25.767Z,1.60
2022-12-05T21:35:59.575Z,1.60
2022-12-05T21:38:28.091Z,1.70
2022-12-05T21:40:58.386Z,1.80
2022-12-05T21:43:27.465Z,1.80
2022-12-05T21:45:57.024Z,1.70
2022-12-05T21:48:28.052Z,1.80
2022-12-05T21:51:01.224Z,1.80
2022-12-05T21:53:29.905Z,1.80
2022-12-05T21:56:04.528Z,1.80
2022-12-05T21:58:34.362Z,1.80
2022-12-05T22:01:05.939Z,1.80
2022-12-05T22:03:34.643Z,1.90
2022-12-05T22:06:04.274Z,1.90
2022-12-05T22:08:33.277Z,1.90
2022-12-05T22:11:07.585Z,1.90
2022-12-05T22:13:36.252Z,1.90
2022-12-05T22:16:05.429Z,1.90
2022-12-05T22:18:34.157Z,1.90
2022-12-05T22:21:04.605Z,1.90
2022-12-05T22:23:34.107Z,1.90
2022-12-05T22:26:05.248Z,1.90
2022-12-05T22:28:36.105Z,1.90
2022-12-05T22:31:07.092Z,2.00
2022-12-05T22:33:36.874Z,1.90
2022-12-05T22:36:07.479Z,1.90
2022-12-05T22:38:38.418Z,1.90
2022-12-05T22:41:09.312Z,2.00
2022-12-05T22:43:40.337Z,2.00
2022-12-05T22:46:10.443Z,2.00
2022-12-05T22:48:40.014Z,2.00
2022-12-05T22:51:09.347Z,2.00
2022-12-05T22:53:38.585Z,2.00
2022-12-05T22:56:09.094Z,2.00
2022-12-05T22:58:39.807Z,2.00
2022-12-05T23:01:13.264Z,2.00
2022-12-05T23:03:42.139Z,2.00
2022-12-05T23:06:12.259Z,2.00
2022-12-05T23:08:41.999Z,2.00
2022-12-05T23:11:11.633Z,2.00
2022-12-05T23:13:41.963Z,2.10
2022-12-05T23:16:13.405Z,2.00
2022-12-05T23:18:49.315Z,2.00
2022-12-05T23:21:19.977Z,2.10
2022-12-05T23:23:49.116Z,2.10
2022-12-05T23:26:19.012Z,2.10
2022-12-05T23:28:48.976Z,2.10
2022-12-05T23:31:17.940Z,2.10
2022-12-05T23:33:50.711Z,2.10
2022-12-05T23:36:20.421Z,2.10
2022-12-05T23:38:49.236Z,2.10
2022-12-05T23:41:19.403Z,2.10
2022-12-05T23:43:50.728Z,2.10
2022-12-05T23:46:21.263Z,2.10
2022-12-05T23:48:50.202Z,2.00
2022-12-05T23:51:20.753Z,2.10
2022-12-05T23:53:53.132Z,2.10
2022-12-05T23:56:24.148Z,2.10
2022-12-05T23:58:59.617Z,2.10
